sensor_id;sensor_type;location;lat;lon;timestamp;pressure;altitude;pressure_sealevel;temperature;humidity
60725;BME280;59881;36.722;-4.462;2023-03-03T00:01:19;101270.78;;;7.87;36.32
60725;BME280;59881;36.722;-4.462;2023-03-03T00:03:45;100861.69;;;5.44;35.74
60725;BME280;59881;36.722;-4.462;2023-03-03T00:06:13;100468.91;;;3.05;36.09
60725;BME280;59881;36.722;-4.462;2023-03-03T00:08:39;101276.09;;;7.85;35.83
60725;BME280;59881;36.722;-4.462;2023-03-03T00:11:05;100867.56;;;4.86;35.75
60725;BME280;59881;36.722;-4.462;2023-03-03T00:13:34;101053.25;;;6.51;35.92
60725;BME280;59881;36.722;-4.462;2023-03-03T00:18:41;101274.47;;;7.83;35.67
60725;BME280;59881;36.722;-4.462;2023-03-03T00:21:31;101279.13;;;7.76;35.62
60725;BME280;59881;36.722;-4.462;2023-03-03T00:24:10;101269.00;;;7.69;35.78
60725;BME280;59881;36.722;-4.462;2023-03-03T00:26:39;101325.97;;;7.65;35.66
60725;BME280;59881;36.722;-4.462;2023-03-03T00:31:49;101430.34;;;7.57;35.91
60725;BME280;59881;36.722;-4.462;2023-03-03T00:34:25;101280.03;;;7.56;35.72
60725;BME280;59881;36.722;-4.462;2023-03-03T00:36:56;101269.69;;;7.53;35.87
60725;BME280;59881;36.722;-4.462;2023-03-03T00:39:32;101267.91;;;7.54;36.16
60725;BME280;59881;36.722;-4.462;2023-03-03T00:42:00;101264.66;;;7.49;35.74
60725;BME280;59881;36.722;-4.462;2023-03-03T00:44:45;101275.22;;;7.47;35.89
60725;BME280;59881;36.722;-4.462;2023-03-03T00:47:36;100863.06;;;4.67;36.21
60725;BME280;59881;36.722;-4.462;2023-03-03T00:52:34;101277.72;;;7.30;36.46
60725;BME280;59881;36.722;-4.462;2023-03-03T00:55:00;101394.88;;;7.28;36.44
60725;BME280;59881;36.722;-4.462;2023-03-03T00:57:26;101271.75;;;7.26;36.37
60725;BME280;59881;36.722;-4.462;2023-03-03T00:59:52;101160.50;;;6.53;36.70
60725;BME280;59881;36.722;-4.462;2023-03-03T01:02:17;101274.31;;;7.28;36.95
60725;BME280;59881;36.722;-4.462;2023-03-03T01:04:48;101212.88;;;6.94;37.05
60725;BME280;59881;36.722;-4.462;2023-03-03T01:07:14;101272.91;;;7.39;36.49
60725;BME280;59881;36.722;-4.462;2023-03-03T01:09:40;100234.88;;;1.21;36.67
60725;BME280;59881;36.722;-4.462;2023-03-03T01:12:05;101260.69;;;7.40;36.64
60725;BME280;59881;36.722;-4.462;2023-03-03T01:14:31;101263.34;;;7.38;36.74
60725;BME280;59881;36.722;-4.462;2023-03-03T01:16:57;100646.88;;;3.26;37.40
60725;BME280;59881;36.722;-4.462;2023-03-03T01:19:24;101263.88;;;7.26;36.84
60725;BME280;59881;36.722;-4.462;2023-03-03T01:21:49;101480.03;;;7.17;36.69
60725;BME280;59881;36.722;-4.462;2023-03-03T01:24:16;101255.03;;;7.08;37.13
60725;BME280;59881;36.722;-4.462;2023-03-03T01:26:42;101257.03;;;7.03;37.02
60725;BME280;59881;36.722;-4.462;2023-03-03T01:29:08;100376.44;;;1.55;37.61
60725;BME280;59881;36.722;-4.462;2023-03-03T01:31:33;101251.53;;;6.89;37.33
60725;BME280;59881;36.722;-4.462;2023-03-03T01:33:59;101254.16;;;6.89;37.49
60725;BME280;59881;36.722;-4.462;2023-03-03T01:36:26;100920.94;;;4.55;37.50
60725;BME280;59881;36.722;-4.462;2023-03-03T01:38:52;101249.28;;;6.79;38.12
60725;BME280;59881;36.722;-4.462;2023-03-03T01:41:18;101434.41;;;6.77;37.96
60725;BME280;59881;36.722;-4.462;2023-03-03T01:43:45;101243.44;;;6.73;38.22
60725;BME280;59881;36.722;-4.462;2023-03-03T01:46:29;101111.69;;;5.43;37.54
60725;BME280;59881;36.722;-4.462;2023-03-03T01:49:10;101240.97;;;6.70;37.86
60725;BME280;59881;36.722;-4.462;2023-03-03T01:51:49;100492.06;;;2.17;38.31
60725;BME280;59881;36.722;-4.462;2023-03-03T01:54:50;101239.38;;;6.66;38.32
60725;BME280;59881;36.722;-4.462;2023-03-03T01:57:28;100936.38;;;3.89;38.38
60725;BME280;59881;36.722;-4.462;2023-03-03T01:59:56;100921.53;;;4.40;38.67
60725;BME280;59881;36.722;-4.462;2023-03-03T02:02:24;101229.28;;;6.56;38.88
60725;BME280;59881;36.722;-4.462;2023-03-03T02:04:51;101300.78;;;6.58;39.18
60725;BME280;59881;36.722;-4.462;2023-03-03T02:07:18;101230.88;;;6.60;38.47
60725;BME280;59881;36.722;-4.462;2023-03-03T02:12:42;101228.84;;;6.47;38.53
60725;BME280;59881;36.722;-4.462;2023-03-03T02:17:41;101229.72;;;6.46;38.64
60725;BME280;59881;36.722;-4.462;2023-03-03T02:20:16;101370.97;;;6.49;38.08
60725;BME280;59881;36.722;-4.462;2023-03-03T02:23:26;101227.97;;;6.46;37.88
60725;BME280;59881;36.722;-4.462;2023-03-03T02:28:25;100550.69;;;2.25;37.99
60725;BME280;59881;36.722;-4.462;2023-03-03T02:30:55;101211.41;;;6.24;38.10
60725;BME280;59881;36.722;-4.462;2023-03-03T02:33:21;101419.50;;;5.85;39.00
60725;BME280;59881;36.722;-4.462;2023-03-03T02:35:47;101230.41;;;6.29;38.78
60725;BME280;59881;36.722;-4.462;2023-03-03T02:43:32;100926.22;;;3.29;38.87
60725;BME280;59881;36.722;-4.462;2023-03-03T02:46:00;100621.81;;;2.49;38.99
60725;BME280;59881;36.722;-4.462;2023-03-03T02:48:25;101202.41;;;6.31;39.00
60725;BME280;59881;36.722;-4.462;2023-03-03T02:50:51;100487.38;;;2.03;39.00
60725;BME280;59881;36.722;-4.462;2023-03-03T02:53:17;100980.38;;;2.90;39.08
60725;BME280;59881;36.722;-4.462;2023-03-03T02:55:42;101195.28;;;6.34;39.00
60725;BME280;59881;36.722;-4.462;2023-03-03T02:58:08;101192.81;;;6.31;38.79
60725;BME280;59881;36.722;-4.462;2023-03-03T03:00:33;101400.44;;;6.30;38.75
60725;BME280;59881;36.722;-4.462;2023-03-03T03:02:59;101185.84;;;6.30;38.90
60725;BME280;59881;36.722;-4.462;2023-03-03T03:05:24;100636.03;;;2.64;39.02
60725;BME280;59881;36.722;-4.462;2023-03-03T03:07:50;101107.44;;;4.93;38.37
60725;BME280;59881;36.722;-4.462;2023-03-03T03:10:15;101191.53;;;6.19;39.03
60725;BME280;59881;36.722;-4.462;2023-03-03T03:12:41;100487.06;;;1.60;39.16
60725;BME280;59881;36.722;-4.462;2023-03-03T03:15:07;100257.91;;;0.53;39.48
60725;BME280;59881;36.722;-4.462;2023-03-03T03:17:36;101071.88;;;5.14;39.56
60725;BME280;59881;36.722;-4.462;2023-03-03T03:20:02;101180.41;;;6.14;39.92
60725;BME280;59881;36.722;-4.462;2023-03-03T03:22:27;101182.00;;;6.18;39.51
60725;BME280;59881;36.722;-4.462;2023-03-03T03:24:53;100740.44;;;3.54;39.50
60725;BME280;59881;36.722;-4.462;2023-03-03T03:27:19;100705.38;;;3.16;39.77
60725;BME280;59881;36.722;-4.462;2023-03-03T03:29:44;100735.94;;;3.10;39.80
60725;BME280;59881;36.722;-4.462;2023-03-03T03:32:10;100950.34;;;4.82;39.53
60725;BME280;59881;36.722;-4.462;2023-03-03T03:34:37;100721.13;;;3.13;39.73
60725;BME280;59881;36.722;-4.462;2023-03-03T03:37:02;100207.50;;;-2.22;39.23
60725;BME280;59881;36.722;-4.462;2023-03-03T03:39:28;101169.28;;;6.09;40.03
60725;BME280;59881;36.722;-4.462;2023-03-03T03:41:53;99590.53;;;-4.32;39.67
60725;BME280;59881;36.722;-4.462;2023-03-03T03:44:19;101161.50;;;6.08;40.29
60725;BME280;59881;36.722;-4.462;2023-03-03T03:46:45;99672.13;;;-5.24;40.21
60725;BME280;59881;36.722;-4.462;2023-03-03T03:49:10;99718.59;;;-3.34;39.57
60725;BME280;59881;36.722;-4.462;2023-03-03T03:51:36;101355.00;;;6.09;39.46
60725;BME280;59881;36.722;-4.462;2023-03-03T03:54:05;100999.00;;;4.61;39.73
60725;BME280;59881;36.722;-4.462;2023-03-03T03:56:31;101263.63;;;6.05;39.88
60725;BME280;59881;36.722;-4.462;2023-03-03T03:58:56;101136.97;;;4.95;39.46
60725;BME280;59881;36.722;-4.462;2023-03-03T04:01:22;100489.38;;;1.68;39.85
60725;BME280;59881;36.722;-4.462;2023-03-03T04:03:47;100918.75;;;3.19;40.06
60725;BME280;59881;36.722;-4.462;2023-03-03T04:06:13;100725.22;;;2.95;39.60
60725;BME280;59881;36.722;-4.462;2023-03-03T04:08:39;100677.91;;;2.57;39.80
60725;BME280;59881;36.722;-4.462;2023-03-03T04:11:04;101159.50;;;5.91;39.95
60725;BME280;59881;36.722;-4.462;2023-03-03T04:13:30;100687.09;;;2.92;39.61
60725;BME280;59881;36.722;-4.462;2023-03-03T04:16:00;100987.28;;;4.95;40.49
60725;BME280;59881;36.722;-4.462;2023-03-03T04:18:25;101254.25;;;5.99;39.90
60725;BME280;59881;36.722;-4.462;2023-03-03T04:20:52;101144.53;;;5.96;39.57
60725;BME280;59881;36.722;-4.462;2023-03-03T04:23:19;100401.44;;;0.77;40.79
60725;BME280;59881;36.722;-4.462;2023-03-03T04:25:45;101155.66;;;6.01;40.63
60725;BME280;59881;36.722;-4.462;2023-03-03T04:28:11;101345.78;;;5.99;41.04
60725;BME280;59881;36.722;-4.462;2023-03-03T04:30:37;101155.03;;;5.94;41.02
60725;BME280;59881;36.722;-4.462;2023-03-03T04:33:02;99625.00;;;-3.35;40.67
60725;BME280;59881;36.722;-4.462;2023-03-03T04:35:28;100499.03;;;1.91;40.88
60725;BME280;59881;36.722;-4.462;2023-03-03T04:37:53;100706.22;;;3.16;41.25
60725;BME280;59881;36.722;-4.462;2023-03-03T04:40:19;100212.38;;;0.18;41.10
60725;BME280;59881;36.722;-4.462;2023-03-03T04:42:44;101362.81;;;5.86;41.55
60725;BME280;59881;36.722;-4.462;2023-03-03T04:45:10;100631.72;;;2.12;41.85
60725;BME280;59881;36.722;-4.462;2023-03-03T04:47:36;101156.53;;;5.78;41.64
60725;BME280;59881;36.722;-4.462;2023-03-03T04:50:02;101151.59;;;5.70;42.91
60725;BME280;59881;36.722;-4.462;2023-03-03T04:52:28;100840.63;;;3.19;42.38
60725;BME280;59881;36.722;-4.462;2023-03-03T04:54:53;101190.94;;;5.67;43.06
60725;BME280;59881;36.722;-4.462;2023-03-03T04:57:19;101333.84;;;5.67;43.68
60725;BME280;59881;36.722;-4.462;2023-03-03T04:59:45;100985.63;;;4.70;43.34
60725;BME280;59881;36.722;-4.462;2023-03-03T05:02:10;101347.94;;;5.63;43.52
60725;BME280;59881;36.722;-4.462;2023-03-03T05:04:37;101109.53;;;4.08;44.12
60725;BME280;59881;36.722;-4.462;2023-03-03T05:07:03;100308.03;;;-0.06;43.92
60725;BME280;59881;36.722;-4.462;2023-03-03T05:09:28;101141.63;;;5.58;44.62
60725;BME280;59881;36.722;-4.462;2023-03-03T05:11:54;101145.09;;;5.58;44.74
60725;BME280;59881;36.722;-4.462;2023-03-03T05:14:20;101123.84;;;5.44;45.00
60725;BME280;59881;36.722;-4.462;2023-03-03T05:16:46;101147.63;;;5.60;44.51
60725;BME280;59881;36.722;-4.462;2023-03-03T05:19:11;101136.44;;;5.56;44.24
60725;BME280;59881;36.722;-4.462;2023-03-03T05:21:37;101139.16;;;5.53;44.83
60725;BME280;59881;36.722;-4.462;2023-03-03T05:24:10;100727.38;;;1.41;45.01
60725;BME280;59881;36.722;-4.462;2023-03-03T05:26:36;100523.13;;;1.70;45.44
60725;BME280;59881;36.722;-4.462;2023-03-03T05:29:02;100656.06;;;1.53;45.49
60725;BME280;59881;36.722;-4.462;2023-03-03T05:31:27;101146.13;;;5.54;45.99
60725;BME280;59881;36.722;-4.462;2023-03-03T05:33:53;100566.75;;;1.30;45.35
60725;BME280;59881;36.722;-4.462;2023-03-03T05:36:19;100900.34;;;4.00;45.94
60725;BME280;59881;36.722;-4.462;2023-03-03T05:38:44;100725.34;;;2.90;45.90
60725;BME280;59881;36.722;-4.462;2023-03-03T05:41:10;101047.25;;;3.99;45.75
60725;BME280;59881;36.722;-4.462;2023-03-03T05:43:35;101215.31;;;5.44;46.16
60725;BME280;59881;36.722;-4.462;2023-03-03T05:46:02;101093.72;;;5.12;46.79
60725;BME280;59881;36.722;-4.462;2023-03-03T05:48:27;100567.16;;;1.16;46.57
60725;BME280;59881;36.722;-4.462;2023-03-03T05:50:56;101158.75;;;5.43;46.67
60725;BME280;59881;36.722;-4.462;2023-03-03T05:53:22;101156.06;;;5.45;46.92
60725;BME280;59881;36.722;-4.462;2023-03-03T05:55:48;99846.84;;;-4.34;46.31
60725;BME280;59881;36.722;-4.462;2023-03-03T05:58:13;101163.97;;;5.43;47.17
60725;BME280;59881;36.722;-4.462;2023-03-03T06:00:39;100375.75;;;0.12;47.15
60725;BME280;59881;36.722;-4.462;2023-03-03T06:03:04;100664.00;;;2.33;47.27
60725;BME280;59881;36.722;-4.462;2023-03-03T06:05:30;99643.09;;;-4.44;46.89
60725;BME280;59881;36.722;-4.462;2023-03-03T06:07:55;101233.94;;;5.35;48.12
60725;BME280;59881;36.722;-4.462;2023-03-03T06:10:21;101174.63;;;5.37;47.92
60725;BME280;59881;36.722;-4.462;2023-03-03T06:12:46;100740.53;;;2.51;47.70
60725;BME280;59881;36.722;-4.462;2023-03-03T06:15:12;100698.63;;;1.49;48.29
60725;BME280;59881;36.722;-4.462;2023-03-03T06:17:38;100986.56;;;4.21;48.10
60725;BME280;59881;36.722;-4.462;2023-03-03T06:20:04;101178.03;;;5.39;48.40
60725;BME280;59881;36.722;-4.462;2023-03-03T06:22:29;100989.16;;;3.96;48.46
60725;BME280;59881;36.722;-4.462;2023-03-03T06:24:55;101277.38;;;5.37;48.47
60725;BME280;59881;36.722;-4.462;2023-03-03T06:27:21;101180.78;;;5.36;48.36
60725;BME280;59881;36.722;-4.462;2023-03-03T06:29:47;101282.69;;;5.36;49.18
60725;BME280;59881;36.722;-4.462;2023-03-03T06:32:12;100546.47;;;0.54;49.32
60725;BME280;59881;36.722;-4.462;2023-03-03T06:34:38;101185.94;;;5.37;49.50
60725;BME280;59881;36.722;-4.462;2023-03-03T06:37:04;100356.13;;;-0.28;49.21
60725;BME280;59881;36.722;-4.462;2023-03-03T06:39:29;101183.44;;;5.34;48.91
60725;BME280;59881;36.722;-4.462;2023-03-03T06:41:55;101351.47;;;5.36;50.11
60725;BME280;59881;36.722;-4.462;2023-03-03T06:44:20;101323.41;;;5.42;50.50
60725;BME280;59881;36.722;-4.462;2023-03-03T06:46:46;100939.88;;;2.52;50.26
60725;BME280;59881;36.722;-4.462;2023-03-03T06:49:12;101378.94;;;5.48;49.80
60725;BME280;59881;36.722;-4.462;2023-03-03T06:51:38;100993.34;;;4.50;49.28
60725;BME280;59881;36.722;-4.462;2023-03-03T06:54:13;101385.91;;;5.73;50.20
60725;BME280;59881;36.722;-4.462;2023-03-03T06:56:40;100651.19;;;1.72;49.83
60725;BME280;59881;36.722;-4.462;2023-03-03T06:59:18;101075.06;;;6.31;49.22
60725;BME280;59881;36.722;-4.462;2023-03-03T07:01:46;101199.16;;;8.04;47.56
60725;BME280;59881;36.722;-4.462;2023-03-03T07:04:26;101201.59;;;8.80;46.10
60725;BME280;59881;36.722;-4.462;2023-03-03T07:06:54;101338.44;;;9.27;44.77
60725;BME280;59881;36.722;-4.462;2023-03-03T07:09:26;100691.00;;;6.19;43.28
60725;BME280;59881;36.722;-4.462;2023-03-03T07:11:59;100942.69;;;9.06;40.82
60725;BME280;59881;36.722;-4.462;2023-03-03T07:14:25;101369.19;;;11.95;39.22
60725;BME280;59881;36.722;-4.462;2023-03-03T07:16:56;100784.94;;;7.64;37.78
60725;BME280;59881;36.722;-4.462;2023-03-03T07:19:33;100712.63;;;10.68;35.91
60725;BME280;59881;36.722;-4.462;2023-03-03T07:24:30;100986.31;;;13.81;32.37
60725;BME280;59881;36.722;-4.462;2023-03-03T07:27:05;101183.94;;;15.69;31.06
60725;BME280;59881;36.722;-4.462;2023-03-03T07:29:32;100829.38;;;14.02;30.56
60725;BME280;59881;36.722;-4.462;2023-03-03T07:32:00;101282.56;;;17.17;29.84
60725;BME280;59881;36.722;-4.462;2023-03-03T07:34:39;100819.75;;;15.62;28.87
60725;BME280;59881;36.722;-4.462;2023-03-03T07:39:50;101315.81;;;19.24;26.67
60725;BME280;59881;36.722;-4.462;2023-03-03T07:44:44;100847.81;;;18.21;25.72
60725;BME280;59881;36.722;-4.462;2023-03-03T07:47:20;100794.81;;;18.54;24.75
60725;BME280;59881;36.722;-4.462;2023-03-03T07:49:48;101083.19;;;20.43;24.12
60725;BME280;59881;36.722;-4.462;2023-03-03T07:54:51;101190.19;;;22.57;21.87
60725;BME280;59881;36.722;-4.462;2023-03-03T07:57:26;101197.38;;;23.14;21.14
60725;BME280;59881;36.722;-4.462;2023-03-03T08:00:41;101192.47;;;23.65;20.41
60725;BME280;59881;36.722;-4.462;2023-03-03T08:02:59;101182.56;;;24.20;19.66
60725;BME280;59881;36.722;-4.462;2023-03-03T08:05:34;101136.38;;;24.31;19.76
60725;BME280;59881;36.722;-4.462;2023-03-03T08:10:52;101166.25;;;25.42;17.80
60725;BME280;59881;36.722;-4.462;2023-03-03T08:13:36;100839.72;;;23.91;17.72
60725;BME280;59881;36.722;-4.462;2023-03-03T08:18:37;101214.19;;;26.77;16.18
60725;BME280;59881;36.722;-4.462;2023-03-03T08:23:29;101182.84;;;27.59;15.84
60725;BME280;59881;36.722;-4.462;2023-03-03T08:25:55;100302.28;;;22.29;15.68
60725;BME280;59881;36.722;-4.462;2023-03-03T08:28:21;101189.47;;;28.12;15.12
60725;BME280;59881;36.722;-4.462;2023-03-03T08:30:48;100736.47;;;25.56;15.23
60725;BME280;59881;36.722;-4.462;2023-03-03T08:33:14;100737.00;;;26.35;14.84
60725;BME280;59881;36.722;-4.462;2023-03-03T08:35:40;101119.56;;;29.59;13.99
60725;BME280;59881;36.722;-4.462;2023-03-03T08:38:06;101261.00;;;30.66;13.20
60725;BME280;59881;36.722;-4.462;2023-03-03T08:40:32;101185.63;;;31.17;12.82
60725;BME280;59881;36.722;-4.462;2023-03-03T08:42:59;101281.75;;;31.54;12.41
60725;BME280;59881;36.722;-4.462;2023-03-03T08:45:26;100822.22;;;29.81;12.61
60725;BME280;59881;36.722;-4.462;2023-03-03T08:47:52;101191.38;;;32.36;12.15
60725;BME280;59881;36.722;-4.462;2023-03-03T08:50:18;101031.16;;;31.72;12.01
60725;BME280;59881;36.722;-4.462;2023-03-03T08:52:44;101192.94;;;33.26;11.49
60725;BME280;59881;36.722;-4.462;2023-03-03T08:55:10;100960.00;;;31.81;11.62
60725;BME280;59881;36.722;-4.462;2023-03-03T08:57:36;101192.03;;;33.61;11.08
60725;BME280;59881;36.722;-4.462;2023-03-03T09:00:04;101141.59;;;33.97;10.72
60725;BME280;59881;36.722;-4.462;2023-03-03T09:02:30;101060.97;;;34.34;9.95
60725;BME280;59881;36.722;-4.462;2023-03-03T09:04:56;100848.81;;;33.55;9.86
60725;BME280;59881;36.722;-4.462;2023-03-03T09:07:21;100891.09;;;34.08;9.33
60725;BME280;59881;36.722;-4.462;2023-03-03T09:09:47;101190.47;;;36.48;9.23
60725;BME280;59881;36.722;-4.462;2023-03-03T09:12:18;101189.31;;;36.71;8.78
60725;BME280;59881;36.722;-4.462;2023-03-03T09:14:47;101065.91;;;36.06;8.35
60725;BME280;59881;36.722;-4.462;2023-03-03T09:17:29;101210.19;;;37.20;8.38
60725;BME280;59881;36.722;-4.462;2023-03-03T09:20:01;100954.00;;;35.98;8.83
60725;BME280;59881;36.722;-4.462;2023-03-03T09:22:37;101168.09;;;38.18;8.51
60725;BME280;59881;36.722;-4.462;2023-03-03T09:25:17;100885.78;;;36.96;8.59
60725;BME280;59881;36.722;-4.462;2023-03-03T09:27:45;100884.94;;;37.46;8.23
60725;BME280;59881;36.722;-4.462;2023-03-03T09:32:45;101077.47;;;39.67;7.23
60725;BME280;59881;36.722;-4.462;2023-03-03T09:35:37;101186.91;;;40.75;7.19
60725;BME280;59881;36.722;-4.462;2023-03-03T09:43:30;101185.50;;;41.83;6.23
60725;BME280;59881;36.722;-4.462;2023-03-03T09:51:51;101184.91;;;43.34;6.04
60725;BME280;59881;36.722;-4.462;2023-03-03T10:00:02;101193.38;;;44.65;5.46
60725;BME280;59881;36.722;-4.462;2023-03-03T10:13:49;101193.34;;;43.29;6.16
60725;BME280;59881;36.722;-4.462;2023-03-03T10:16:40;101184.25;;;44.10;6.06
60725;BME280;59881;36.722;-4.462;2023-03-03T10:19:19;101184.56;;;45.20;5.64
60725;BME280;59881;36.722;-4.462;2023-03-03T10:21:50;101041.75;;;45.68;5.28
60725;BME280;59881;36.722;-4.462;2023-03-03T10:24:29;101151.13;;;47.64;4.54
60725;BME280;59881;36.722;-4.462;2023-03-03T10:35:21;101173.69;;;49.81;3.34
60725;BME280;59881;36.722;-4.462;2023-03-03T10:40:54;101177.47;;;50.48;2.89
60725;BME280;59881;36.722;-4.462;2023-03-03T10:46:39;101186.03;;;50.87;2.64
60725;BME280;59881;36.722;-4.462;2023-03-03T11:02:36;101179.94;;;43.81;4.76
60725;BME280;59881;36.722;-4.462;2023-03-03T11:05:15;101189.56;;;36.37;7.83
60725;BME280;59881;36.722;-4.462;2023-03-03T11:07:43;101196.56;;;30.41;10.46
60725;BME280;59881;36.722;-4.462;2023-03-03T11:23:49;101199.31;;;21.12;18.42
60725;BME280;59881;36.722;-4.462;2023-03-03T11:26:40;101194.69;;;20.34;18.93
60725;BME280;59881;36.722;-4.462;2023-03-03T11:37:35;101190.06;;;19.73;18.99
60725;BME280;59881;36.722;-4.462;2023-03-03T11:40:19;101174.22;;;19.52;19.51
60725;BME280;59881;36.722;-4.462;2023-03-03T11:42:56;101110.16;;;19.14;20.59
60725;BME280;59881;36.722;-4.462;2023-03-03T11:45:36;100760.66;;;17.00;20.66
60725;BME280;59881;36.722;-4.462;2023-03-03T11:53:37;101174.69;;;19.10;19.68
60725;BME280;59881;36.722;-4.462;2023-03-03T11:56:37;101169.09;;;19.03;19.50
60725;BME280;59881;36.722;-4.462;2023-03-03T12:01:54;101065.47;;;18.32;20.80
60725;BME280;59881;36.722;-4.462;2023-03-03T12:16:45;101157.16;;;17.51;28.84
60725;BME280;59881;36.722;-4.462;2023-03-03T12:32:32;101133.88;;;17.13;30.66
60725;BME280;59881;36.722;-4.462;2023-03-03T12:40:32;101133.84;;;16.61;33.83
60725;BME280;59881;36.722;-4.462;2023-03-03T12:43:01;101135.94;;;16.58;34.58
60725;BME280;59881;36.722;-4.462;2023-03-03T12:48:44;101117.94;;;16.29;34.29
60725;BME280;59881;36.722;-4.462;2023-03-03T12:54:30;100576.84;;;13.03;34.55
60725;BME280;59881;36.722;-4.462;2023-03-03T13:05:46;101095.78;;;16.40;35.04
60725;BME280;59881;36.722;-4.462;2023-03-03T13:08:37;101096.28;;;16.33;36.01
60725;BME280;59881;36.722;-4.462;2023-03-03T13:13:42;101080.34;;;16.33;36.72
60725;BME280;59881;36.722;-4.462;2023-03-03T13:16:21;101077.75;;;16.22;37.52
60725;BME280;59881;36.722;-4.462;2023-03-03T13:19:07;101080.59;;;16.09;38.61
60725;BME280;59881;36.722;-4.462;2023-03-03T13:21:34;101079.69;;;15.99;38.89
60725;BME280;59881;36.722;-4.462;2023-03-03T13:26:39;101078.38;;;15.93;40.44
60725;BME280;59881;36.722;-4.462;2023-03-03T13:29:19;101074.88;;;15.93;40.73
60725;BME280;59881;36.722;-4.462;2023-03-03T13:31:48;101066.34;;;15.78;40.91
60725;BME280;59881;36.722;-4.462;2023-03-03T13:34:24;101060.09;;;15.68;41.35
60725;BME280;59881;36.722;-4.462;2023-03-03T13:36:56;101069.88;;;15.56;42.01
60725;BME280;59881;36.722;-4.462;2023-03-03T13:39:24;101054.59;;;15.48;42.14
60725;BME280;59881;36.722;-4.462;2023-03-03T13:42:00;101062.19;;;15.53;42.45
60725;BME280;59881;36.722;-4.462;2023-03-03T13:44:37;101051.94;;;15.48;42.25
60725;BME280;59881;36.722;-4.462;2023-03-03T17:42:45;101008.25;;;12.98;48.47
60725;BME280;59881;36.722;-4.462;2023-03-03T17:45:11;101007.84;;;12.92;49.04
60725;BME280;59881;36.722;-4.462;2023-03-03T17:50:30;101014.41;;;12.86;49.79
60725;BME280;59881;36.722;-4.462;2023-03-03T17:58:11;101033.28;;;12.69;50.30
60725;BME280;59881;36.722;-4.462;2023-03-03T18:00:46;101028.41;;;12.62;50.86
60725;BME280;59881;36.722;-4.462;2023-03-03T18:06:16;101043.31;;;12.51;51.20
60725;BME280;59881;36.722;-4.462;2023-03-03T18:11:48;101037.09;;;12.39;52.03
60725;BME280;59881;36.722;-4.462;2023-03-03T18:22:11;101047.34;;;12.18;52.67
60725;BME280;59881;36.722;-4.462;2023-03-03T18:27:32;101046.16;;;12.09;52.67
60725;BME280;59881;36.722;-4.462;2023-03-03T18:37:49;101047.00;;;11.83;53.37
60725;BME280;59881;36.722;-4.462;2023-03-03T18:40:31;101051.72;;;11.77;53.33
60725;BME280;59881;36.722;-4.462;2023-03-03T18:42:57;101056.38;;;11.74;53.46
60725;BME280;59881;36.722;-4.462;2023-03-03T18:48:03;101050.66;;;11.67;53.66
60725;BME280;59881;36.722;-4.462;2023-03-03T18:50:40;101042.00;;;11.65;53.33
60725;BME280;59881;36.722;-4.462;2023-03-03T18:53:09;101045.38;;;11.67;53.39
60725;BME280;59881;36.722;-4.462;2023-03-03T18:55:43;101045.56;;;11.64;53.49
60725;BME280;59881;36.722;-4.462;2023-03-03T19:00:41;101052.09;;;11.58;53.59
60725;BME280;59881;36.722;-4.462;2023-03-03T19:03:13;101059.28;;;11.56;53.67
60725;BME280;59881;36.722;-4.462;2023-03-03T19:05:48;101062.22;;;11.52;53.13
60725;BME280;59881;36.722;-4.462;2023-03-03T19:08:20;101067.88;;;11.46;53.19
60725;BME280;59881;36.722;-4.462;2023-03-03T19:16:43;101076.84;;;11.29;52.95
60725;BME280;59881;36.722;-4.462;2023-03-03T19:21:34;101088.09;;;11.18;53.25
60725;BME280;59881;36.722;-4.462;2023-03-03T19:24:01;101087.34;;;11.16;52.98
60725;BME280;59881;36.722;-4.462;2023-03-03T19:29:15;101088.78;;;11.07;52.76
60725;BME280;59881;36.722;-4.462;2023-03-03T19:40:19;101103.09;;;11.03;52.63
60725;BME280;59881;36.722;-4.462;2023-03-03T19:42:47;101102.34;;;11.01;53.03
60725;BME280;59881;36.722;-4.462;2023-03-03T19:47:46;101107.78;;;11.12;52.79
60725;BME280;59881;36.722;-4.462;2023-03-03T19:50:24;101103.19;;;11.16;52.82
60725;BME280;59881;36.722;-4.462;2023-03-03T19:55:50;101101.00;;;11.23;52.67
60725;BME280;59881;36.722;-4.462;2023-03-03T19:58:31;101098.16;;;11.26;53.12
60725;BME280;59881;36.722;-4.462;2023-03-03T20:16:09;101113.16;;;11.25;52.28
60725;BME280;59881;36.722;-4.462;2023-03-03T20:23:58;101124.25;;;11.30;52.63
60725;BME280;59881;36.722;-4.462;2023-03-03T20:27:02;101126.13;;;11.28;52.79
60725;BME280;59881;36.722;-4.462;2023-03-03T20:32:19;101121.53;;;11.32;52.90
60725;BME280;59881;36.722;-4.462;2023-03-03T20:37:38;101132.16;;;11.30;52.78
60725;BME280;59881;36.722;-4.462;2023-03-03T20:45:42;101121.41;;;11.33;52.91
60725;BME280;59881;36.722;-4.462;2023-03-03T20:51:02;101137.63;;;11.27;53.04
60725;BME280;59881;36.722;-4.462;2023-03-03T20:56:06;101146.47;;;11.26;53.00
60725;BME280;59881;36.722;-4.462;2023-03-03T20:58:38;101146.59;;;11.25;52.71
60725;BME280;59881;36.722;-4.462;2023-03-03T21:01:11;101146.00;;;11.19;52.79
60725;BME280;59881;36.722;-4.462;2023-03-03T21:03:40;101146.28;;;11.15;53.20
60725;BME280;59881;36.722;-4.462;2023-03-03T21:11:11;101144.16;;;11.07;52.86
60725;BME280;59881;36.722;-4.462;2023-03-03T21:13:38;101144.22;;;11.06;52.97
60725;BME280;59881;36.722;-4.462;2023-03-03T21:18:33;101156.38;;;11.08;53.50
60725;BME280;59881;36.722;-4.462;2023-03-03T21:20:59;101152.06;;;11.07;53.31
60725;BME280;59881;36.722;-4.462;2023-03-03T21:23:24;101149.50;;;11.06;53.29
60725;BME280;59881;36.722;-4.462;2023-03-03T21:25:51;101160.25;;;11.03;53.54
60725;BME280;59881;36.722;-4.462;2023-03-03T21:33:43;101165.41;;;10.90;53.40
60725;BME280;59881;36.722;-4.462;2023-03-03T21:36:10;101164.72;;;10.86;53.99
60725;BME280;59881;36.722;-4.462;2023-03-03T21:38:36;101164.72;;;10.86;53.86
60725;BME280;59881;36.722;-4.462;2023-03-03T21:41:03;101162.94;;;10.87;54.19
60725;BME280;59881;36.722;-4.462;2023-03-03T21:43:36;101167.56;;;10.83;53.95
60725;BME280;59881;36.722;-4.462;2023-03-03T21:46:01;101171.88;;;10.84;54.15